sensor_id;sensor_type;location;lat;lon;timestamp;P1;durP1;ratioP1;P2;durP2;ratioP2
7957;SDS011;4024;52.172;5.378;2023-04-01T00:00:21;16.80;;;9.57;;
7957;SDS011;4024;52.172;5.378;2023-04-01T00:02:47;13.37;;;9.67;;
7957;SDS011;4024;52.172;5.378;2023-04-01T00:05:13;15.57;;;9.73;;
7957;SDS011;4024;52.172;5.378;2023-04-01T00:07:39;15.93;;;10.03;;
7957;SDS011;4024;52.172;5.378;2023-04-01T00:10:06;13.33;;;9.80;;
7957;SDS011;4024;52.172;5.378;2023-04-01T00:12:33;14.97;;;8.40;;
7957;SDS011;4024;52.172;5.378;2023-04-01T00:14:59;15.60;;;9.33;;
7957;SDS011;4024;52.172;5.378;2023-04-01T00:17:25;14.43;;;9.60;;
7957;SDS011;4024;52.172;5.378;2023-04-01T00:19:51;18.43;;;9.50;;
7957;SDS011;4024;52.172;5.378;2023-04-01T00:22:19;17.53;;;8.73;;
7957;SDS011;4024;52.172;5.378;2023-04-01T00:24:45;15.50;;;7.50;;
7957;SDS011;4024;52.172;5.378;2023-04-01T00:27:10;15.37;;;7.57;;
7957;SDS011;4024;52.172;5.378;2023-04-01T00:29:36;15.13;;;7.90;;
7957;SDS011;4024;52.172;5.378;2023-04-01T00:32:02;15.27;;;8.43;;
7957;SDS011;4024;52.172;5.378;2023-04-01T00:34:27;13.60;;;8.10;;
7957;SDS011;4024;52.172;5.378;2023-04-01T00:36:53;17.27;;;8.07;;
7957;SDS011;4024;52.172;5.378;2023-04-01T00:39:20;15.53;;;7.77;;
7957;SDS011;4024;52.172;5.378;2023-04-01T00:41:46;15.90;;;7.87;;
7957;SDS011;4024;52.172;5.378;2023-04-01T00:44:22;14.37;;;8.20;;
7957;SDS011;4024;52.172;5.378;2023-04-01T00:46:50;17.50;;;9.30;;
7957;SDS011;4024;52.172;5.378;2023-04-01T00:49:17;14.20;;;7.07;;
7957;SDS011;4024;52.172;5.378;2023-04-01T00:51:45;15.13;;;8.50;;
7957;SDS011;4024;52.172;5.378;2023-04-01T00:54:13;15.53;;;7.97;;
7957;SDS011;4024;52.172;5.378;2023-04-01T00:56:48;15.03;;;7.83;;
7957;SDS011;4024;52.172;5.378;2023-04-01T00:59:24;23.83;;;8.47;;
7957;SDS011;4024;52.172;5.378;2023-04-01T01:01:52;12.10;;;8.20;;
7957;SDS011;4024;52.172;5.378;2023-04-01T01:07:10;15.10;;;8.93;;
7957;SDS011;4024;52.172;5.378;2023-04-01T01:12:55;20.03;;;9.90;;
7957;SDS011;4024;52.172;5.378;2023-04-01T01:15:42;16.67;;;8.57;;
7957;SDS011;4024;52.172;5.378;2023-04-01T01:29:11;10.23;;;6.63;;
7957;SDS011;4024;52.172;5.378;2023-04-01T01:37:11;7.97;;;5.13;;
7957;SDS011;4024;52.172;5.378;2023-04-01T01:39:40;8.13;;;4.97;;
7957;SDS011;4024;52.172;5.378;2023-04-01T01:42:09;7.83;;;5.20;;
7957;SDS011;4024;52.172;5.378;2023-04-01T01:44:38;8.90;;;5.03;;
7957;SDS011;4024;52.172;5.378;2023-04-01T01:47:05;9.13;;;5.17;;
7957;SDS011;4024;52.172;5.378;2023-04-01T01:49:31;9.43;;;5.00;;
7957;SDS011;4024;52.172;5.378;2023-04-01T01:51:58;6.90;;;4.50;;
7957;SDS011;4024;52.172;5.378;2023-04-01T01:54:24;7.83;;;4.83;;
7957;SDS011;4024;52.172;5.378;2023-04-01T01:56:55;7.27;;;4.20;;
7957;SDS011;4024;52.172;5.378;2023-04-01T01:59:33;5.70;;;4.27;;
7957;SDS011;4024;52.172;5.378;2023-04-01T02:02:02;5.87;;;4.17;;
7957;SDS011;4024;52.172;5.378;2023-04-01T02:04:33;4.67;;;3.40;;
7957;SDS011;4024;52.172;5.378;2023-04-01T02:07:04;5.93;;;3.87;;
7957;SDS011;4024;52.172;5.378;2023-04-01T02:09:36;5.00;;;3.77;;
7957;SDS011;4024;52.172;5.378;2023-04-01T02:12:09;5.27;;;3.40;;
7957;SDS011;4024;52.172;5.378;2023-04-01T02:14:39;6.37;;;3.57;;
7957;SDS011;4024;52.172;5.378;2023-04-01T02:17:11;4.40;;;3.60;;
7957;SDS011;4024;52.172;5.378;2023-04-01T02:19:42;6.80;;;3.63;;
7957;SDS011;4024;52.172;5.378;2023-04-01T02:22:19;5.90;;;3.57;;
7957;SDS011;4024;52.172;5.378;2023-04-01T02:24:52;5.53;;;3.60;;
7957;SDS011;4024;52.172;5.378;2023-04-01T02:27:22;4.17;;;3.33;;
7957;SDS011;4024;52.172;5.378;2023-04-01T02:29:49;5.37;;;3.40;;
7957;SDS011;4024;52.172;5.378;2023-04-01T02:32:15;4.47;;;3.47;;
7957;SDS011;4024;52.172;5.378;2023-04-01T02:34:43;7.30;;;3.53;;
7957;SDS011;4024;52.172;5.378;2023-04-01T02:37:10;3.67;;;3.10;;
7957;SDS011;4024;52.172;5.378;2023-04-01T02:39:38;4.60;;;3.47;;
7957;SDS011;4024;52.172;5.378;2023-04-01T02:42:04;6.13;;;3.67;;
7957;SDS011;4024;52.172;5.378;2023-04-01T02:44:30;3.97;;;3.57;;
7957;SDS011;4024;52.172;5.378;2023-04-01T02:46:57;6.03;;;4.37;;
7957;SDS011;4024;52.172;5.378;2023-04-01T02:49:23;4.37;;;3.80;;
7957;SDS011;4024;52.172;5.378;2023-04-01T02:51:48;4.90;;;4.00;;
7957;SDS011;4024;52.172;5.378;2023-04-01T02:54:14;5.47;;;3.87;;
7957;SDS011;4024;52.172;5.378;2023-04-01T02:56:40;3.87;;;3.53;;
7957;SDS011;4024;52.172;5.378;2023-04-01T02:59:05;6.17;;;3.80;;
7957;SDS011;4024;52.172;5.378;2023-04-01T03:01:31;7.13;;;4.00;;
7957;SDS011;4024;52.172;5.378;2023-04-01T03:03:57;4.30;;;3.90;;
7957;SDS011;4024;52.172;5.378;2023-04-01T03:06:22;5.37;;;3.70;;
7957;SDS011;4024;52.172;5.378;2023-04-01T03:08:48;5.03;;;3.37;;
7957;SDS011;4024;52.172;5.378;2023-04-01T03:11:13;5.87;;;3.60;;
7957;SDS011;4024;52.172;5.378;2023-04-01T03:13:39;4.20;;;3.80;;
7957;SDS011;4024;52.172;5.378;2023-04-01T03:16:06;4.90;;;3.33;;
7957;SDS011;4024;52.172;5.378;2023-04-01T03:18:31;4.63;;;4.07;;
7957;SDS011;4024;52.172;5.378;2023-04-01T03:20:57;5.23;;;4.10;;
7957;SDS011;4024;52.172;5.378;2023-04-01T03:23:37;6.67;;;4.77;;
7957;SDS011;4024;52.172;5.378;2023-04-01T03:26:03;7.07;;;6.03;;
7957;SDS011;4024;52.172;5.378;2023-04-01T03:28:28;7.20;;;6.50;;
7957;SDS011;4024;52.172;5.378;2023-04-01T03:30:54;8.60;;;7.10;;
7957;SDS011;4024;52.172;5.378;2023-04-01T03:33:20;8.83;;;7.13;;
7957;SDS011;4024;52.172;5.378;2023-04-01T03:35:45;8.40;;;7.50;;
7957;SDS011;4024;52.172;5.378;2023-04-01T03:38:11;9.13;;;8.10;;
7957;SDS011;4024;52.172;5.378;2023-04-01T03:40:41;9.57;;;8.30;;
7957;SDS011;4024;52.172;5.378;2023-04-01T03:43:07;9.80;;;8.63;;
7957;SDS011;4024;52.172;5.378;2023-04-01T03:45:34;10.43;;;9.20;;
7957;SDS011;4024;52.172;5.378;2023-04-01T03:48:00;11.93;;;10.07;;
7957;SDS011;4024;52.172;5.378;2023-04-01T03:50:26;12.07;;;9.83;;
7957;SDS011;4024;52.172;5.378;2023-04-01T03:52:52;13.73;;;10.30;;
7957;SDS011;4024;52.172;5.378;2023-04-01T03:55:17;14.80;;;12.23;;
7957;SDS011;4024;52.172;5.378;2023-04-01T03:57:43;14.10;;;11.60;;
7957;SDS011;4024;52.172;5.378;2023-04-01T04:00:09;14.37;;;11.67;;
7957;SDS011;4024;52.172;5.378;2023-04-01T04:02:35;15.63;;;11.97;;
7957;SDS011;4024;52.172;5.378;2023-04-01T04:05:01;12.90;;;10.60;;
7957;SDS011;4024;52.172;5.378;2023-04-01T04:07:28;13.80;;;10.57;;
7957;SDS011;4024;52.172;5.378;2023-04-01T04:09:53;15.60;;;10.90;;
7957;SDS011;4024;52.172;5.378;2023-04-01T04:12:19;13.50;;;10.33;;
7957;SDS011;4024;52.172;5.378;2023-04-01T04:14:44;13.33;;;10.47;;
7957;SDS011;4024;52.172;5.378;2023-04-01T04:17:10;14.47;;;10.53;;
7957;SDS011;4024;52.172;5.378;2023-04-01T04:19:44;13.83;;;10.50;;
7957;SDS011;4024;52.172;5.378;2023-04-01T04:22:10;11.67;;;9.80;;
7957;SDS011;4024;52.172;5.378;2023-04-01T04:24:36;12.57;;;8.97;;
7957;SDS011;4024;52.172;5.378;2023-04-01T04:27:04;10.70;;;8.67;;
7957;SDS011;4024;52.172;5.378;2023-04-01T04:29:30;11.70;;;8.57;;
7957;SDS011;4024;52.172;5.378;2023-04-01T04:31:55;11.60;;;8.50;;
7957;SDS011;4024;52.172;5.378;2023-04-01T04:34:21;9.80;;;7.80;;
7957;SDS011;4024;52.172;5.378;2023-04-01T04:36:49;9.33;;;8.10;;
7957;SDS011;4024;52.172;5.378;2023-04-01T04:39:15;11.40;;;8.70;;
7957;SDS011;4024;52.172;5.378;2023-04-01T04:41:48;9.83;;;7.50;;
7957;SDS011;4024;52.172;5.378;2023-04-01T04:44:14;9.17;;;6.80;;
7957;SDS011;4024;52.172;5.378;2023-04-01T04:46:41;9.13;;;6.33;;
7957;SDS011;4024;52.172;5.378;2023-04-01T04:49:06;8.57;;;6.73;;
7957;SDS011;4024;52.172;5.378;2023-04-01T04:51:32;8.60;;;5.33;;
7957;SDS011;4024;52.172;5.378;2023-04-01T04:54:01;8.53;;;5.47;;
7957;SDS011;4024;52.172;5.378;2023-04-01T04:56:29;7.27;;;5.93;;
7957;SDS011;4024;52.172;5.378;2023-04-01T04:58:55;8.27;;;6.33;;
7957;SDS011;4024;52.172;5.378;2023-04-01T05:01:22;8.93;;;6.93;;
7957;SDS011;4024;52.172;5.378;2023-04-01T05:03:48;7.83;;;6.57;;
7957;SDS011;4024;52.172;5.378;2023-04-01T05:06:15;8.57;;;6.97;;
7957;SDS011;4024;52.172;5.378;2023-04-01T05:08:41;8.37;;;6.93;;
7957;SDS011;4024;52.172;5.378;2023-04-01T05:11:15;9.60;;;8.23;;
7957;SDS011;4024;52.172;5.378;2023-04-01T05:13:42;12.13;;;7.93;;
7957;SDS011;4024;52.172;5.378;2023-04-01T05:16:10;8.80;;;7.23;;
7957;SDS011;4024;52.172;5.378;2023-04-01T05:18:37;8.60;;;7.70;;
7957;SDS011;4024;52.172;5.378;2023-04-01T05:21:04;10.37;;;8.90;;
7957;SDS011;4024;52.172;5.378;2023-04-01T05:23:31;9.60;;;8.20;;
7957;SDS011;4024;52.172;5.378;2023-04-01T05:25:58;11.43;;;8.47;;
7957;SDS011;4024;52.172;5.378;2023-04-01T05:28:27;9.43;;;7.47;;
7957;SDS011;4024;52.172;5.378;2023-04-01T05:30:52;10.07;;;8.33;;
7957;SDS011;4024;52.172;5.378;2023-04-01T05:33:18;8.70;;;7.63;;
7957;SDS011;4024;52.172;5.378;2023-04-01T05:35:44;8.17;;;7.37;;
7957;SDS011;4024;52.172;5.378;2023-04-01T05:38:09;9.50;;;7.23;;
7957;SDS011;4024;52.172;5.378;2023-04-01T05:40:35;7.50;;;6.70;;
7957;SDS011;4024;52.172;5.378;2023-04-01T05:43:01;7.03;;;6.33;;
7957;SDS011;4024;52.172;5.378;2023-04-01T05:45:26;6.40;;;5.63;;
7957;SDS011;4024;52.172;5.378;2023-04-01T05:47:52;5.73;;;5.10;;
7957;SDS011;4024;52.172;5.378;2023-04-01T05:50:18;5.73;;;5.13;;
7957;SDS011;4024;52.172;5.378;2023-04-01T05:52:44;5.73;;;5.13;;
7957;SDS011;4024;52.172;5.378;2023-04-01T05:55:10;6.03;;;5.00;;
7957;SDS011;4024;52.172;5.378;2023-04-01T05:57:36;7.63;;;5.60;;
7957;SDS011;4024;52.172;5.378;2023-04-01T06:00:02;8.20;;;6.00;;
7957;SDS011;4024;52.172;5.378;2023-04-01T06:02:29;5.70;;;4.93;;
7957;SDS011;4024;52.172;5.378;2023-04-01T06:05:12;7.10;;;5.70;;
7957;SDS011;4024;52.172;5.378;2023-04-01T06:07:43;7.60;;;6.40;;
7957;SDS011;4024;52.172;5.378;2023-04-01T06:10:13;7.23;;;6.50;;
7957;SDS011;4024;52.172;5.378;2023-04-01T06:12:59;8.17;;;6.33;;
7957;SDS011;4024;52.172;5.378;2023-04-01T06:37:50;7.27;;;6.20;;
7957;SDS011;4024;52.172;5.378;2023-04-01T06:43:08;6.23;;;5.47;;
7957;SDS011;4024;52.172;5.378;2023-04-01T06:45:55;5.90;;;4.50;;
7957;SDS011;4024;52.172;5.378;2023-04-01T06:48:32;4.60;;;3.97;;
7957;SDS011;4024;52.172;5.378;2023-04-01T06:53:54;3.80;;;3.40;;
7957;SDS011;4024;52.172;5.378;2023-04-01T06:56:29;3.97;;;3.57;;
7957;SDS011;4024;52.172;5.378;2023-04-01T06:59:02;3.60;;;3.30;;
7957;SDS011;4024;52.172;5.378;2023-04-01T07:04:57;4.47;;;4.07;;
7957;SDS011;4024;52.172;5.378;2023-04-01T07:07:37;4.67;;;4.13;;
7957;SDS011;4024;52.172;5.378;2023-04-01T07:10:15;5.30;;;4.77;;
7957;SDS011;4024;52.172;5.378;2023-04-01T07:12:51;5.13;;;4.63;;
7957;SDS011;4024;52.172;5.378;2023-04-01T07:15:21;5.73;;;4.73;;
7957;SDS011;4024;52.172;5.378;2023-04-01T07:17:54;6.07;;;4.90;;
7957;SDS011;4024;52.172;5.378;2023-04-01T07:20:30;6.17;;;5.57;;
7957;SDS011;4024;52.172;5.378;2023-04-01T07:23:02;6.73;;;5.87;;
7957;SDS011;4024;52.172;5.378;2023-04-01T07:25:30;8.23;;;5.60;;
7957;SDS011;4024;52.172;5.378;2023-04-01T07:27:59;7.07;;;6.37;;
7957;SDS011;4024;52.172;5.378;2023-04-01T07:30:33;6.30;;;5.70;;
7957;SDS011;4024;52.172;5.378;2023-04-01T07:33:16;6.73;;;6.03;;
7957;SDS011;4024;52.172;5.378;2023-04-01T07:35:58;7.60;;;6.60;;
7957;SDS011;4024;52.172;5.378;2023-04-01T07:49:27;9.47;;;7.10;;
7957;SDS011;4024;52.172;5.378;2023-04-01T07:54:29;9.00;;;7.47;;
7957;SDS011;4024;52.172;5.378;2023-04-01T07:57:19;9.60;;;8.43;;
7957;SDS011;4024;52.172;5.378;2023-04-01T08:00:20;10.93;;;8.17;;
7957;SDS011;4024;52.172;5.378;2023-04-01T08:05:40;9.77;;;8.10;;
7957;SDS011;4024;52.172;5.378;2023-04-01T08:14:03;9.17;;;7.60;;
7957;SDS011;4024;52.172;5.378;2023-04-01T08:22:11;8.70;;;7.43;;
7957;SDS011;4024;52.172;5.378;2023-04-01T08:24:45;10.13;;;8.00;;
7957;SDS011;4024;52.172;5.378;2023-04-01T08:27:35;10.73;;;7.70;;
7957;SDS011;4024;52.172;5.378;2023-04-01T08:33:05;9.83;;;7.00;;
7957;SDS011;4024;52.172;5.378;2023-04-01T08:35:41;11.50;;;7.70;;
7957;SDS011;4024;52.172;5.378;2023-04-01T08:38:34;8.93;;;7.27;;
7957;SDS011;4024;52.172;5.378;2023-04-01T08:49:16;9.67;;;7.70;;
7957;SDS011;4024;52.172;5.378;2023-04-01T08:52:09;9.73;;;7.47;;
7957;SDS011;4024;52.172;5.378;2023-04-01T08:54:46;10.33;;;7.60;;
7957;SDS011;4024;52.172;5.378;2023-04-01T09:05:26;8.50;;;7.60;;
7957;SDS011;4024;52.172;5.378;2023-04-01T09:11:04;8.27;;;7.13;;
7957;SDS011;4024;52.172;5.378;2023-04-01T09:19:50;6.83;;;6.13;;
7957;SDS011;4024;52.172;5.378;2023-04-01T09:25:45;7.30;;;5.83;;
7957;SDS011;4024;52.172;5.378;2023-04-01T09:28:41;6.93;;;6.23;;
7957;SDS011;4024;52.172;5.378;2023-04-01T09:34:25;7.60;;;6.80;;
7957;SDS011;4024;52.172;5.378;2023-04-01T10:20:01;10.23;;;8.67;;
7957;SDS011;4024;52.172;5.378;2023-04-01T10:22:46;11.77;;;8.83;;
7957;SDS011;4024;52.172;5.378;2023-04-01T10:28:29;9.30;;;8.23;;
7957;SDS011;4024;52.172;5.378;2023-04-01T10:33:49;9.07;;;7.17;;
7957;SDS011;4024;52.172;5.378;2023-04-01T10:42:25;6.43;;;5.33;;
7957;SDS011;4024;52.172;5.378;2023-04-01T11:10:56;3.60;;;3.30;;
7957;SDS011;4024;52.172;5.378;2023-04-01T11:22:25;4.20;;;3.80;;
7957;SDS011;4024;52.172;5.378;2023-04-01T11:28:33;4.77;;;3.90;;
7957;SDS011;4024;52.172;5.378;2023-04-01T11:31:43;4.13;;;3.73;;
7957;SDS011;4024;52.172;5.378;2023-04-01T11:37:12;4.30;;;3.90;;
7957;SDS011;4024;52.172;5.378;2023-04-01T12:05:21;6.57;;;5.93;;
7957;SDS011;4024;52.172;5.378;2023-04-01T12:07:51;7.27;;;6.23;;
7957;SDS011;4024;52.172;5.378;2023-04-01T12:10:32;7.73;;;6.50;;
7957;SDS011;4024;52.172;5.378;2023-04-01T12:18:40;10.17;;;8.77;;
7957;SDS011;4024;52.172;5.378;2023-04-01T12:23:57;10.10;;;9.10;;
7957;SDS011;4024;52.172;5.378;2023-04-01T12:26:39;10.07;;;8.90;;
7957;SDS011;4024;52.172;5.378;2023-04-01T12:32:21;12.13;;;10.07;;
7957;SDS011;4024;52.172;5.378;2023-04-01T12:35:01;11.57;;;10.33;;
7957;SDS011;4024;52.172;5.378;2023-04-01T12:37:50;15.17;;;11.33;;
7957;SDS011;4024;52.172;5.378;2023-04-01T12:46:49;14.70;;;11.20;;
7957;SDS011;4024;52.172;5.378;2023-04-01T12:52:08;11.83;;;10.40;;
7957;SDS011;4024;52.172;5.378;2023-04-01T13:19:13;9.03;;;8.10;;
7957;SDS011;4024;52.172;5.378;2023-04-01T13:21:53;8.93;;;8.03;;
7957;SDS011;4024;52.172;5.378;2023-04-01T13:32:47;7.37;;;6.67;;
7957;SDS011;4024;52.172;5.378;2023-04-01T13:43:19;6.20;;;5.60;;
7957;SDS011;4024;52.172;5.378;2023-04-01T13:49:03;6.40;;;5.73;;
7957;SDS011;4024;52.172;5.378;2023-04-01T13:54:26;7.10;;;6.40;;
7957;SDS011;4024;52.172;5.378;2023-04-01T14:05:53;6.70;;;6.00;;
7957;SDS011;4024;52.172;5.378;2023-04-01T14:22:33;6.70;;;6.07;;
7957;SDS011;4024;52.172;5.378;2023-04-01T14:47:34;5.87;;;5.37;;
7957;SDS011;4024;52.172;5.378;2023-04-01T14:50:09;6.13;;;5.07;;
7957;SDS011;4024;52.172;5.378;2023-04-01T14:53:09;5.73;;;5.13;;
7957;SDS011;4024;52.172;5.378;2023-04-01T14:55:50;5.73;;;5.23;;
7957;SDS011;4024;52.172;5.378;2023-04-01T14:58:19;6.17;;;5.30;;
7957;SDS011;4024;52.172;5.378;2023-04-01T15:00:53;5.50;;;4.53;;
7957;SDS011;4024;52.172;5.378;2023-04-01T15:17:31;6.47;;;4.67;;
7957;SDS011;4024;52.172;5.378;2023-04-01T15:23:11;5.20;;;4.70;;
7957;SDS011;4024;52.172;5.378;2023-04-01T15:26:11;5.50;;;5.00;;
7957;SDS011;4024;52.172;5.378;2023-04-01T15:28:50;5.47;;;4.90;;
7957;SDS011;4024;52.172;5.378;2023-04-01T15:31:29;5.23;;;4.70;;
7957;SDS011;4024;52.172;5.378;2023-04-01T15:37:04;4.67;;;4.27;;
7957;SDS011;4024;52.172;5.378;2023-04-01T15:42:33;5.23;;;4.30;;
7957;SDS011;4024;52.172;5.378;2023-04-01T15:45:26;4.63;;;4.23;;
7957;SDS011;4024;52.172;5.378;2023-04-01T15:50:53;5.10;;;4.60;;
7957;SDS011;4024;52.172;5.378;2023-04-01T16:01:59;3.80;;;3.40;;
7957;SDS011;4024;52.172;5.378;2023-04-01T16:18:58;3.63;;;3.33;;
7957;SDS011;4024;52.172;5.378;2023-04-01T16:21:45;3.47;;;3.17;;
7957;SDS011;4024;52.172;5.378;2023-04-01T16:27:00;3.63;;;3.33;;
7957;SDS011;4024;52.172;5.378;2023-04-01T16:35:03;4.30;;;3.20;;
7957;SDS011;4024;52.172;5.378;2023-04-01T16:37:47;3.77;;;3.47;;
7957;SDS011;4024;52.172;5.378;2023-04-01T16:45:45;5.07;;;4.63;;
7957;SDS011;4024;52.172;5.378;2023-04-01T16:48:20;5.13;;;4.63;;
7957;SDS011;4024;52.172;5.378;2023-04-01T16:51:03;4.97;;;4.53;;
7957;SDS011;4024;52.172;5.378;2023-04-01T16:53:44;5.43;;;4.93;;
7957;SDS011;4024;52.172;5.378;2023-04-01T16:56:28;4.60;;;4.20;;
7957;SDS011;4024;52.172;5.378;2023-04-01T17:01:43;4.80;;;4.40;;
7957;SDS011;4024;52.172;5.378;2023-04-01T17:09:51;4.17;;;3.87;;
7957;SDS011;4024;52.172;5.378;2023-04-01T17:13:02;4.87;;;4.47;;
7957;SDS011;4024;52.172;5.378;2023-04-01T17:23:42;3.57;;;3.27;;
7957;SDS011;4024;52.172;5.378;2023-04-01T17:26:29;4.13;;;3.73;;
7957;SDS011;4024;52.172;5.378;2023-04-01T17:29:06;3.73;;;3.40;;
7957;SDS011;4024;52.172;5.378;2023-04-01T17:32:19;4.10;;;3.77;;
7957;SDS011;4024;52.172;5.378;2023-04-01T17:35:01;3.57;;;3.33;;
7957;SDS011;4024;52.172;5.378;2023-04-01T17:43:43;4.13;;;3.83;;
7957;SDS011;4024;52.172;5.378;2023-04-01T17:46:23;4.50;;;4.03;;
7957;SDS011;4024;52.172;5.378;2023-04-01T17:49:00;4.73;;;4.33;;
7957;SDS011;4024;52.172;5.378;2023-04-01T17:51:41;5.10;;;4.00;;
7957;SDS011;4024;52.172;5.378;2023-04-01T17:54:45;4.70;;;4.30;;
7957;SDS011;4024;52.172;5.378;2023-04-01T18:03:00;4.60;;;4.20;;
7957;SDS011;4024;52.172;5.378;2023-04-01T18:11:34;4.60;;;4.20;;
7957;SDS011;4024;52.172;5.378;2023-04-01T18:14:31;4.63;;;4.27;;
7957;SDS011;4024;52.172;5.378;2023-04-01T18:22:55;5.43;;;5.03;;
7957;SDS011;4024;52.172;5.378;2023-04-01T18:25:38;5.07;;;4.67;;
7957;SDS011;4024;52.172;5.378;2023-04-01T18:30:58;5.30;;;4.90;;
7957;SDS011;4024;52.172;5.378;2023-04-01T18:38:57;5.53;;;5.03;;
7957;SDS011;4024;52.172;5.378;2023-04-01T18:44:53;6.20;;;5.70;;
7957;SDS011;4024;52.172;5.378;2023-04-01T18:47:41;6.67;;;5.73;;
7957;SDS011;4024;52.172;5.378;2023-04-01T18:53:50;5.40;;;5.00;;
7957;SDS011;4024;52.172;5.378;2023-04-01T18:56:01;5.87;;;5.37;;
7957;SDS011;4024;52.172;5.378;2023-04-01T18:58:37;5.17;;;4.73;;
7957;SDS011;4024;52.172;5.378;2023-04-01T19:09:30;4.57;;;4.27;;
7957;SDS011;4024;52.172;5.378;2023-04-01T19:14:59;5.20;;;4.80;;
7957;SDS011;4024;52.172;5.378;2023-04-01T19:20:41;6.10;;;5.50;;
7957;SDS011;4024;52.172;5.378;2023-04-01T19:26:09;5.90;;;5.40;;
7957;SDS011;4024;52.172;5.378;2023-04-01T19:29:06;6.10;;;5.60;;
7957;SDS011;4024;52.172;5.378;2023-04-01T20:02:38;7.40;;;6.70;;
7957;SDS011;4024;52.172;5.378;2023-04-01T20:08:02;7.67;;;6.97;;
7957;SDS011;4024;52.172;5.378;2023-04-01T20:13:44;8.83;;;7.90;;
7957;SDS011;4024;52.172;5.378;2023-04-01T20:19:39;8.60;;;7.80;;
7957;SDS011;4024;52.172;5.378;2023-04-01T20:22:34;9.17;;;8.27;;
7957;SDS011;4024;52.172;5.378;2023-04-01T20:25:26;9.77;;;8.77;;
7957;SDS011;4024;52.172;5.378;2023-04-01T20:28:12;8.87;;;8.07;;
7957;SDS011;4024;52.172;5.378;2023-04-01T20:39:48;8.57;;;7.60;;
7957;SDS011;4024;52.172;5.378;2023-04-01T20:47:58;7.93;;;6.83;;
7957;SDS011;4024;52.172;5.378;2023-04-01T20:50:53;7.83;;;7.10;;
7957;SDS011;4024;52.172;5.378;2023-04-01T20:53:29;7.90;;;7.20;;
7957;SDS011;4024;52.172;5.378;2023-04-01T20:56:09;8.10;;;7.13;;
7957;SDS011;4024;52.172;5.378;2023-04-01T21:14:57;6.83;;;6.23;;
7957;SDS011;4024;52.172;5.378;2023-04-01T21:20:32;8.80;;;7.87;;
7957;SDS011;4024;52.172;5.378;2023-04-01T21:23:21;8.30;;;7.50;;
7957;SDS011;4024;52.172;5.378;2023-04-01T21:29:11;8.47;;;7.10;;
7957;SDS011;4024;52.172;5.378;2023-04-01T21:37:33;9.83;;;8.03;;
7957;SDS011;4024;52.172;5.378;2023-04-01T21:40:34;8.13;;;7.43;;
7957;SDS011;4024;52.172;5.378;2023-04-01T21:43:28;8.10;;;7.30;;
7957;SDS011;4024;52.172;5.378;2023-04-01T21:46:03;9.13;;;8.23;;
7957;SDS011;4024;52.172;5.378;2023-04-01T22:00:09;8.87;;;8.00;;
7957;SDS011;4024;52.172;5.378;2023-04-01T22:05:36;11.40;;;8.20;;
7957;SDS011;4024;52.172;5.378;2023-04-01T22:20:39;9.53;;;8.57;;
7957;SDS011;4024;52.172;5.378;2023-04-01T22:23:29;9.53;;;8.50;;
7957;SDS011;4024;52.172;5.378;2023-04-01T22:28:51;14.40;;;9.90;;
7957;SDS011;4024;52.172;5.378;2023-04-01T22:31:40;10.47;;;9.27;;
7957;SDS011;4024;52.172;5.378;2023-04-01T22:34:23;10.33;;;8.80;;
7957;SDS011;4024;52.172;5.378;2023-04-01T22:37:21;10.73;;;9.37;;
7957;SDS011;4024;52.172;5.378;2023-04-01T22:53:59;11.17;;;9.77;;
7957;SDS011;4024;52.172;5.378;2023-04-01T22:56:45;11.17;;;9.67;;
7957;SDS011;4024;52.172;5.378;2023-04-01T22:59:36;12.27;;;10.27;;
7957;SDS011;4024;52.172;5.378;2023-04-01T23:02:28;15.00;;;10.20;;
7957;SDS011;4024;52.172;5.378;2023-04-01T23:04:58;11.53;;;10.00;;
7957;SDS011;4024;52.172;5.378;2023-04-01T23:10:27;14.07;;;10.37;;
7957;SDS011;4024;52.172;5.378;2023-04-01T23:13:04;11.70;;;9.20;;
7957;SDS011;4024;52.172;5.378;2023-04-01T23:15:35;14.60;;;10.57;;
7957;SDS011;4024;52.172;5.378;2023-04-01T23:21:12;11.70;;;10.27;;
7957;SDS011;4024;52.172;5.378;2023-04-01T23:26:29;13.27;;;10.10;;
7957;SDS011;4024;52.172;5.378;2023-04-01T23:28:55;14.30;;;9.97;;
7957;SDS011;4024;52.172;5.378;2023-04-01T23:31:29;13.27;;;10.23;;
7957;SDS011;4024;52.172;5.378;2023-04-01T23:34:01;15.50;;;10.57;;
7957;SDS011;4024;52.172;5.378;2023-04-01T23:36:58;13.27;;;10.80;;
7957;SDS011;4024;52.172;5.378;2023-04-01T23:39:42;14.30;;;11.20;;
7957;SDS011;4024;52.172;5.378;2023-04-01T23:42:15;12.23;;;10.57;;
7957;SDS011;4024;52.172;5.378;2023-04-01T23:44:48;14.50;;;10.37;;
7957;SDS011;4024;52.172;5.378;2023-04-01T23:47:16;14.57;;;11.33;;
7957;SDS011;4024;52.172;5.378;2023-04-01T23:49:46;13.43;;;10.87;;
7957;SDS011;4024;52.172;5.378;2023-04-01T23:57:29;16.27;;;10.97;;
